Hong Kong, Hong Kong

7:43 AM HKT on 四月 29, 2017 (GMT +0800)
Hong Kong International

天気 に付いての歴史 VHHH - 三月, 2017

Change the Weather History Date:

火曜日, 三月 21, 2017

  Actual Average Record
Temperature  
平均温度 75 °F -  
最高温度 81 °F 76 °F 82 °F (2002)
最低温度 69 °F 67 °F 57 °F (1998)
Cooling Degree Days 10    
Growing Degree Days 25 (Base 50)    
Moisture  
露点温度 68 °F    
Average Humidity 79    
Maximum Humidity 94    
Minimum Humidity 61    
降水確率  
降水確率 0.00 インチ - - ()
海面圧  
海面圧 29.96 インチ    
 
風速 6 Mph ()    
最大風速 20 Mph    
Max Gust Speed -    
視程 4.3 マイル    
イベント    
Averages and records for this station are not official NWS values.
T = Trace of Precipitation, MM = Missing Value Source: Averaged Metar Reports

Daily Weather History Graph

Daily Weather History Graph

Search for Another Location

Airport or City:

Trip Planner

Search our weather history database for the weather conditions in past years. The results will help you decide how hot, cold, wet, or windy it might be!

Date:

天文

Mar. 21, 2017 入り
実時間 6:27 AM HKT 6:35 PM HKT
常用薄明 6:05 AM HKT 6:58 PM HKT
航海薄明 5:39 AM HKT 7:24 PM HKT
天文薄明 5:13 AM HKT 7:50 PM HKT
1:06 AM HKT (3/21) 12:22 PM HKT (3/21)
可視光の長さ 12h 52m
可照時間
12h 08m
第 4 四半期, 45% of the Moon is Illuminated
3月 21
第 4 四半期
3月 28
新しい
4月 4
上弦
4月 11
満月
4月 19
第 4 四半期

Hourly Weather History & Observations

時間 (HKT) 温度 体感気温(暑さ) 露点温度 湿度 気圧 視程 Wind Dir 風速 突風の速度 Precip イベント 現在の気象状況
12:00 AM 73.4 °F - 68.0 °F 83% 29.98 インチ 3.1 マイル 東北東 5.8 Mph - N/A   所により曇
12:08 AM 73.4 °F - 68.0 °F 83% 29.98 インチ 2.8 マイル 東北東 4.6 Mph - N/A   所により曇
12:30 AM 73.4 °F - 68.0 °F 83% 29.98 インチ 3.1 マイル 東北東 3.5 Mph - N/A   所により曇
12:48 AM 73.4 °F - 68.0 °F 83% 29.98 インチ - 変数 2.3 Mph - N/A   所により曇
1:00 AM 73.4 °F - 68.0 °F 83% 29.98 インチ 3.7 マイル 西南西 3.5 Mph - N/A   所により曇
1:30 AM 73.4 °F - 68.0 °F 83% 29.95 インチ 5.0 マイル 変数 3.5 Mph - N/A   所により曇
1:39 AM 71.6 °F - 68.0 °F 88% 29.95 インチ - 北北東 4.6 Mph - N/A   所により曇
1:54 AM 73.4 °F - 68.0 °F 83% 29.95 インチ 5.0 マイル 東北東 4.6 Mph - N/A   所により曇
2:00 AM 73 °F - 68 °F 79% 29.96 インチ 2 マイル 東北東 4.5 Mph - -   もや
2:00 AM 73.4 °F - 68.0 °F 83% 29.95 インチ 4.3 マイル 東北東 4.6 Mph - N/A   所により曇
2:30 AM 71.6 °F - 68.0 °F 88% 29.95 インチ 3.7 マイル 東北東 5.8 Mph - N/A   所により曇
2:33 AM 71.6 °F - 68.0 °F 88% 29.95 インチ - 東北東 5.8 Mph - N/A   所により曇
2:54 AM 71.6 °F - 68.0 °F 88% 29.95 インチ 3.7 マイル 東北東 4.6 Mph - N/A   所により曇
3:00 AM 71.6 °F - 68.0 °F 88% 29.95 インチ 3.7 マイル 東北東 4.6 Mph - N/A   所により曇
3:25 AM 71.6 °F - 68.0 °F 88% 29.95 インチ 2.8 マイル 3.5 Mph - N/A   所により曇
3:30 AM 71.6 °F - 68.0 °F 88% 29.95 インチ - 変数 3.5 Mph - N/A   所により曇
4:00 AM 71.6 °F - 68.0 °F 88% 29.95 インチ 3.1 マイル 8.1 Mph - N/A   所により曇
4:04 AM 69.8 °F - 68.0 °F 94% 29.95 インチ - 東北東 8.1 Mph - N/A   所により曇
4:20 AM 71.6 °F - 68.0 °F 88% 29.95 インチ 3.1 マイル 6.9 Mph - N/A   所により曇
4:30 AM 71.6 °F - 68.0 °F 88% 29.95 インチ 3.1 マイル 6.9 Mph - N/A   所により曇
5:00 AM 71 °F - 69 °F 89% 29.96 インチ 3 マイル 8.9 Mph - -   もや
5:00 AM 71.6 °F - 68.0 °F 88% 29.95 インチ 3.7 マイル 8.1 Mph - N/A   所により曇
5:30 AM 71.6 °F - 68.0 °F 88% 29.95 インチ 3.7 マイル 6.9 Mph - N/A   やや曇
6:00 AM 71.6 °F - 68.0 °F 88% 29.98 インチ 4.3 マイル 東南東 5.8 Mph - N/A   やや曇
6:30 AM 71.6 °F - 68.0 °F 88% 29.98 インチ 3.7 マイル 東南東 4.6 Mph - N/A   やや曇
7:00 AM 71.6 °F - 68.0 °F 88% 29.98 インチ 3.7 マイル 東南東 4.6 Mph - N/A   やや曇
7:30 AM 71.6 °F - 68.0 °F 88% 30.01 インチ 3.7 マイル 3.5 Mph - N/A   やや曇
8:00 AM 74 °F - 68 °F 78% 30.01 インチ 3 マイル 4.5 Mph - -   やや曇
8:00 AM 73.4 °F - 68.0 °F 83% 30.01 インチ 3.1 マイル 4.6 Mph - N/A   所により曇
8:30 AM 75.2 °F - 68.0 °F 78% 30.01 インチ 3.1 マイル 北東 4.6 Mph - N/A   所により曇
9:00 AM 75.2 °F - 68.0 °F 78% 30.01 インチ 3.1 マイル 北東 5.8 Mph - N/A   所により曇
9:30 AM 77.0 °F - 68.0 °F 74% 30.01 インチ 3.7 マイル 北北東 3.5 Mph - N/A   所により曇
10:00 AM 78.8 °F - 68.0 °F 69% 30.01 インチ 3.7 マイル 北北西 4.6 Mph - N/A   所により曇
10:18 AM 77.0 °F - 68.0 °F 74% 30.01 インチ - 北西 5.8 Mph - N/A   煙霧
10:30 AM 77.0 °F - 68.0 °F 74% 30.01 インチ 3.1 マイル 北西 6.9 Mph - N/A   所により曇
10:45 AM 78.8 °F - 68.0 °F 69% 30.01 インチ - 西北西 6.9 Mph - N/A   煙霧
11:00 AM 78 °F - 69 °F 67% 30.01 インチ 3 マイル 西 6.7 Mph - -   煙霧
11:00 AM 77.0 °F - 69.8 °F 78% 30.01 インチ 3.1 マイル 西 8.1 Mph - N/A   所により曇
11:30 AM 78.8 °F - 69.8 °F 74% 29.98 インチ 3.7 マイル 西 9.2 Mph - N/A   所により曇
12:00 PM 78.8 °F - 69.8 °F 74% 29.98 インチ 3.1 マイル 西南西 8.1 Mph - N/A   所により曇
12:30 PM 78.8 °F - 69.8 °F 74% 29.95 インチ 4.3 マイル 西 10.4 Mph - N/A   所により曇
1:00 PM 78.8 °F - 69.8 °F 74% 29.92 インチ 4.3 マイル 西 8.1 Mph - N/A   所により曇
1:30 PM 78.8 °F - 69.8 °F 74% 29.92 インチ 4.3 マイル 西 5.8 Mph - N/A   所により曇
2:00 PM 81 °F - 70 °F 61% 29.92 インチ 4 マイル 西 8.9 Mph - -   やや曇
2:00 PM 80.6 °F 83.9 °F 69.8 °F 70% 29.92 インチ 4.3 マイル 西 9.2 Mph - N/A   所により曇
2:30 PM 80.6 °F 83.9 °F 69.8 °F 70% 29.89 インチ 4.3 マイル 西 6.9 Mph - N/A   所により曇
3:00 PM 80.6 °F 83.9 °F 69.8 °F 70% 29.89 インチ 3.7 マイル 西 5.8 Mph - N/A   所により曇
3:30 PM 77.0 °F - 69.8 °F 78% 29.89 インチ 3.7 マイル 5.8 Mph - N/A   所により曇
4:00 PM 80.6 °F 83.2 °F 68.0 °F 65% 29.89 インチ 6.2 マイル 変数 5.8 Mph - N/A   所により曇
4:15 PM 78.8 °F - 68.0 °F 69% 29.89 インチ 6.2 マイル 南南東 13.8 Mph - N/A   所により曇
4:30 PM 78.8 °F - 66.2 °F 65% 29.89 インチ 6.2 マイル 南南東 11.5 Mph - N/A   所により曇
5:00 PM 77 °F - 66 °F 62% 29.92 インチ 11 マイル 南南東 11.2 Mph - -   やや曇
5:00 PM 77.0 °F - 66.2 °F 69% 29.92 インチ 6.2 マイル 南南東 11.5 Mph - N/A   所により曇
5:30 PM 78.8 °F - 66.2 °F 65% 29.89 インチ 6.2 マイル 東南東 15.0 Mph - N/A   所により曇
6:00 PM 77.0 °F - 66.2 °F 69% 29.92 インチ 6.2 マイル 15.0 Mph - N/A   所により曇
6:30 PM 77.0 °F - 66.2 °F 69% 29.92 インチ 6.2 マイル 12.7 Mph - N/A   所により曇
7:00 PM 75.2 °F - 66.2 °F 73% 29.95 インチ 6.2 マイル 13.8 Mph - N/A   所により曇
7:30 PM 75.2 °F - 68.0 °F 78% 29.95 インチ 6.2 マイル 12.7 Mph - N/A   所により曇
8:00 PM 74 °F - 67 °F 73% 29.96 インチ 6 マイル 13.4 Mph - -   やや曇
8:00 PM 75.2 °F - 68.0 °F 78% 29.95 インチ 6.2 マイル 12.7 Mph - N/A   所により曇
8:30 PM 75.2 °F - 66.2 °F 73% 29.98 インチ 5.0 マイル 13.8 Mph - N/A   所により曇
9:00 PM 73.4 °F - 66.2 °F 78% 29.98 インチ 4.3 マイル 15.0 Mph - N/A   やや曇
9:30 PM 71.6 °F - 66.2 °F 83% 29.98 インチ 3.7 マイル 19.6 Mph - N/A   やや曇
10:00 PM 71.6 °F - 66.2 °F 83% 30.01 インチ 3.7 マイル 16.1 Mph - N/A   やや曇
10:30 PM 69.8 °F - 66.2 °F 88% 29.98 インチ 3.7 マイル 17.3 Mph - N/A 小雨
11:00 PM 70 °F - 66 °F 83% 29.99 インチ 4 マイル 17.9 Mph - - 小雨
11:00 PM 69.8 °F - 66.2 °F 88% 29.98 インチ 5.6 マイル 18.4 Mph - N/A   やや曇
11:30 PM 69.8 °F - 66.2 °F 88% 29.98 インチ 5.0 マイル 19.6 Mph - N/A   やや曇